Pagrindinis puslapis
METAR-TAF:

METAR-TAF

Oro uostai :

Londono Hitrou oro uostas

Londonas Heathrow, Anglija

platuma: 51-29N, ilguma: 000-27W, Aukštis: 24 m

Dabartinis oras

Ataskaita buvo paskelbta 1 valandą ir 27 minutes, ne 12:50 UTC
Vėjas 6 kt iš Rytų, svyruoja nuo Šiaurės ir Pietų/Pietryčių
Temperatūra 25°C
Drėgmė 32%
Slėgis 1022 hPa
Matomumas 10 km arba daugiau

METAR: EGLL 011250Z AUTO 08006KT 350V150 9999 NCD 25/07 Q1022

Laikas: 15:17 (14:17 UTC)

Prognozė

Ataskaita buvo paskelbta 3 valandos ir 18 minutes, ne 10:59 UTC
Prognozė galioja nuo 01 metu 12 UTC su 02 metu 18 UTC
Vėjas 5 kt iš Šiaurės/Šiaurės Rytų
Matomumas 10 km arba daugiau
nėra debesų žemiau 1500 m ir nėra kamuolinių lietaus debesų
Tapsmas
nuo 01 metu 12 UTC su 01 metu 15 UTC
Vėjas 10 kt iš Rytų
Tapsmas
nuo 02 metu 00 UTC su 02 metu 03 UTC
Vėjas 4 kt iš Šiaurės

TAF: EGLL 011059Z 0112/0218 02005KT CAVOK BECMG 0112/0115 08010KT BECMG 0200/0203 01004KT

Orai ataskaitas ir orų prognozės (METAR, TAF).

turimą stotys yra geltonos ir raudonos taškus žemėlapyje.

Perkelti pele per norėdami pamatyti stoties vardą.

Tada spustelėkite, norėdami matyti oro stebėjimo ir prognozės.

Norėdami pakeisti žemėlapį: spustelėkite ant žalios mygtukų su juodo kryžiaus žemyn,; žalią mygtuką su brūkšneliu, jei norite nutolinti; arba žalių rodyklių gretimoms žemėlapius.


METAR-TAF: